Terminal Aerodrome Forecast
Issued by NWS

Home | Current Version | Previous Version | Text Only | Print | Product List | Glossary On
Versions: 1 2 3 4 5 6 7 8 9 10 11 12 13 14 15 16 17 18 19
210
FTUS46 KSTO 210526
TAFSCK
TAF
KSCK 210526Z 2106/2206 16020G29KT P6SM -RA OVC050
     FM211400 18013G20KT P6SM VCSH OVC035
     FM212000 21015G22KT P6SM -SHRA OVC035=

USA.gov is the U.S. government's official web portal to all federal, state and local government web resources and services.